Time;durP1;ratioP1;P1;durP2;ratioP2;P2;SDS_P1;SDS_P2;PMS_P1;PMS_P2;Temp;Humidity;BMP_temperature;BMP_pressure;BME280_temperature;BME280_humidity;BME280_pressure;Samples;Min_cycle;Max_cycle;Signal;HPM_P1;HPM_P2
2024/02/17 00:00:05;;;;;;;36.42;24.42;;;9.70;99.90;;;;;;4933905;28;20390;-74
2024/02/17 00:02:32;;;;;;;31.85;21.83;;;9.60;99.90;;;;;;4945097;28;20043;-76
2024/02/17 00:04:59;;;;;;;37.85;24.25;;;9.50;99.90;;;;;;4965056;28;20047;-76
2024/02/17 00:07:25;;;;;;;33.10;22.85;;;9.40;99.90;;;;;;4947150;28;20065;-74
2024/02/17 00:09:52;;;;;;;38.30;25.20;;;9.40;99.90;;;;;;4978681;28;20047;-77
2024/02/17 00:12:19;;;;;;;31.77;23.40;;;9.40;99.90;;;;;;4979745;28;20486;-76
2024/02/17 00:14:45;;;;;;;35.58;24.52;;;9.30;99.90;;;;;;4979641;28;20042;-77
2024/02/17 00:17:11;;;;;;;31.77;21.95;;;9.30;99.90;;;;;;4933616;28;20164;-77
2024/02/17 00:19:38;;;;;;;31.15;22.52;;;9.30;99.90;;;;;;4964888;28;20051;-76
2024/02/17 00:22:04;;;;;;;28.40;20.70;;;9.20;99.90;;;;;;4964267;28;20035;-77
2024/02/17 00:24:31;;;;;;;34.30;23.13;;;9.20;99.90;;;;;;4964289;28;20042;-77
2024/02/17 00:26:57;;;;;;;31.35;21.38;;;9.30;99.90;;;;;;4932789;28;20040;-75
2024/02/17 00:29:24;;;;;;;39.83;26.48;;;9.30;99.90;;;;;;4949879;28;20070;-74
2024/02/17 00:31:51;;;;;;;39.58;25.52;;;9.30;99.90;;;;;;4964250;28;20039;-76
2024/02/17 00:34:18;;;;;;;45.70;28.67;;;9.40;99.90;;;;;;4934330;28;20572;-74
2024/02/17 00:36:44;;;;;;;55.67;32.42;;;9.40;99.90;;;;;;4934679;28;20031;-77
2024/02/17 00:39:11;;;;;;;42.00;25.75;;;9.50;99.90;;;;;;4966966;28;20038;-75
2024/02/17 00:41:38;;;;;;;48.28;28.98;;;9.50;99.90;;;;;;4934631;28;21415;-77
2024/02/17 00:44:04;;;;;;;41.30;26.77;;;9.50;99.90;;;;;;4949097;28;20042;-76
2024/02/17 00:46:31;;;;;;;35.05;22.75;;;9.50;99.90;;;;;;4935643;28;20023;-76
2024/02/17 00:49:04;;;;;;;34.38;22.80;;;9.50;99.90;;;;;;5049846;28;20431;-73
2024/02/17 00:51:30;;;;;;;40.75;23.73;;;9.50;99.90;;;;;;5029258;28;20041;-76
2024/02/17 00:53:56;;;;;;;53.03;31.90;;;9.60;99.90;;;;;;5029695;28;20036;-75
2024/02/17 00:56:23;;;;;;;52.10;30.40;;;9.60;99.90;;;;;;5030658;28;20025;-76
2024/02/17 00:58:50;;;;;;;44.90;27.05;;;9.60;99.90;;;;;;5030246;28;20755;-76
2024/02/17 01:01:16;;;;;;;43.42;25.83;;;9.60;99.90;;;;;;5026418;28;21452;-74
2024/02/17 01:03:43;;;;;;;42.60;26.38;;;9.60;99.90;;;;;;5028014;28;20550;-77
2024/02/17 01:06:09;;;;;;;41.15;25.38;;;9.60;99.90;;;;;;5029999;28;20041;-76
2024/02/17 01:08:36;;;;;;;49.10;26.70;;;9.60;99.90;;;;;;5030877;28;20037;-77
2024/02/17 01:11:02;;;;;;;43.15;27.52;;;9.60;99.90;;;;;;5032132;28;20032;-74
2024/02/17 01:13:28;;;;;;;50.75;29.15;;;9.60;99.90;;;;;;5029804;28;20025;-74
2024/02/17 01:15:58;;;;;;;50.95;31.48;;;9.70;99.90;;;;;;5031171;28;20037;-76
2024/02/17 01:18:24;;;;;;;46.92;27.02;;;9.70;99.90;;;;;;5031547;28;20447;-75
2024/02/17 01:20:51;;;;;;;46.40;26.38;;;9.70;99.90;;;;;;5062120;28;20034;-75
2024/02/17 01:23:17;;;;;;;45.72;25.52;;;9.70;99.90;;;;;;5027589;28;20033;-76
2024/02/17 01:25:44;;;;;;;53.10;29.60;;;9.70;99.90;;;;;;4997190;28;20044;-75
2024/02/17 01:28:10;;;;;;;46.75;26.42;;;9.70;99.90;;;;;;5011307;28;20046;-74
2024/02/17 01:30:37;;;;;;;44.72;26.90;;;9.70;99.90;;;;;;5012603;28;20515;-76
2024/02/17 01:33:03;;;;;;;49.58;26.38;;;9.70;99.90;;;;;;5028939;28;20096;-76
2024/02/17 01:35:29;;;;;;;51.03;29.15;;;9.70;99.90;;;;;;4997089;28;20059;-78
2024/02/17 01:37:56;;;;;;;46.97;26.55;;;9.70;99.90;;;;;;5029935;28;20041;-77
2024/02/17 01:40:23;;;;;;;53.38;28.70;;;9.70;99.90;;;;;;5047642;28;20056;-77
2024/02/17 01:42:49;;;;;;;44.63;24.67;;;9.70;99.90;;;;;;5027529;28;20516;-76
2024/02/17 01:45:16;;;;;;;45.80;26.08;;;9.60;99.90;;;;;;5028045;28;20052;-76
2024/02/17 01:47:42;;;;;;;50.60;26.25;;;9.60;99.90;;;;;;5026123;28;20044;-77
2024/02/17 01:50:09;;;;;;;40.78;23.77;;;9.60;99.90;;;;;;5026525;28;20051;-75
2024/02/17 01:52:37;;;;;;;57.40;31.80;;;9.60;99.90;;;;;;5027452;28;20033;-74
2024/02/17 01:55:05;;;;;;;58.05;28.00;;;9.70;99.90;;;;;;5027811;28;20891;-77
2024/02/17 01:57:32;;;;;;;50.97;27.92;;;9.70;99.90;;;;;;4999454;28;20052;-77
2024/02/17 01:59:58;;;;;;;53.15;29.45;;;9.60;99.90;;;;;;5019167;28;20030;-77
2024/02/17 02:02:24;;;;;;;56.28;29.92;;;9.70;99.90;;;;;;5016729;28;20040;-75
2024/02/17 02:04:51;;;;;;;45.60;26.92;;;9.70;99.90;;;;;;5001691;28;20041;-77
2024/02/17 02:07:18;;;;;;;56.90;29.20;;;9.70;99.90;;;;;;5018001;28;20044;-76
2024/02/17 02:09:44;;;;;;;54.92;29.88;;;9.60;99.90;;;;;;5019631;28;20060;-74
2024/02/17 02:12:10;;;;;;;54.25;29.08;;;9.70;99.90;;;;;;4983726;28;20049;-76
2024/02/17 02:14:37;;;;;;;51.33;26.90;;;9.70;99.90;;;;;;4999069;28;20037;-74
2024/02/17 02:17:03;;;;;;;52.53;28.58;;;9.70;99.90;;;;;;4994171;28;20030;-76
2024/02/17 02:19:29;;;;;;;47.75;25.27;;;9.70;99.90;;;;;;5012048;28;20037;-77
2024/02/17 02:21:56;;;;;;;51.97;27.05;;;9.70;99.90;;;;;;5013784;28;20073;-75
2024/02/17 02:24:22;;;;;;;47.30;27.50;;;9.70;99.90;;;;;;4999510;28;20878;-77
2024/02/17 02:26:49;;;;;;;58.03;31.05;;;9.70;99.90;;;;;;5013840;28;20029;-74
2024/02/17 02:29:15;;;;;;;52.05;29.35;;;9.70;99.90;;;;;;5015762;28;20045;-77
2024/02/17 02:31:41;;;;;;;53.15;27.83;;;9.70;99.90;;;;;;5016124;28;20045;-77
2024/02/17 02:34:08;;;;;;;46.05;24.63;;;9.70;99.90;;;;;;5015586;28;20522;-75
2024/02/17 02:36:34;;;;;;;50.17;25.35;;;9.70;99.90;;;;;;5012737;28;20049;-76
2024/02/17 02:39:01;;;;;;;50.80;25.55;;;9.70;99.90;;;;;;5045121;28;20405;-77
2024/02/17 02:41:27;;;;;;;43.90;24.92;;;9.70;99.90;;;;;;5012369;28;20037;-76
2024/02/17 02:43:53;;;;;;;58.53;26.63;;;9.70;99.90;;;;;;5014241;28;20037;-77
2024/02/17 02:46:20;;;;;;;42.42;23.95;;;9.60;99.90;;;;;;4997447;28;20049;-74
2024/02/17 02:48:46;;;;;;;54.90;28.23;;;9.60;99.90;;;;;;4983652;28;20053;-77
2024/02/17 02:51:19;;;;;;;54.88;26.77;;;9.60;99.90;;;;;;4982583;28;20057;-76
2024/02/17 02:53:45;;;;;;;55.22;27.40;;;9.60;99.90;;;;;;5012505;28;20038;-77
2024/02/17 02:56:12;;;;;;;59.00;30.08;;;9.60;99.90;;;;;;5014155;28;20040;-77
2024/02/17 02:58:38;;;;;;;47.15;26.63;;;9.60;99.90;;;;;;5000111;28;20401;-75
2024/02/17 03:01:04;;;;;;;41.38;23.95;;;9.60;99.90;;;;;;5013955;28;21106;-76
2024/02/17 03:03:31;;;;;;;42.67;23.83;;;9.60;99.90;;;;;;5012679;28;20045;-77
2024/02/17 03:05:57;;;;;;;39.40;22.30;;;9.60;99.90;;;;;;4997448;28;20033;-78
2024/02/17 03:08:24;;;;;;;44.97;23.67;;;9.60;99.90;;;;;;5010771;28;20038;-77
2024/02/17 03:10:50;;;;;;;44.75;24.65;;;9.60;99.90;;;;;;5016949;28;20037;-76
2024/02/17 03:13:16;;;;;;;51.47;25.80;;;9.60;99.90;;;;;;4996625;28;20045;-77
2024/02/17 03:15:43;;;;;;;51.40;25.80;;;9.60;99.90;;;;;;5015142;28;20025;-76
2024/02/17 03:18:09;;;;;;;48.92;24.73;;;9.60;99.90;;;;;;5013515;28;20032;-76
2024/02/17 03:20:36;;;;;;;48.08;24.67;;;9.60;99.90;;;;;;4998091;28;20041;-77
2024/02/17 03:23:02;;;;;;;45.65;24.90;;;9.60;99.90;;;;;;5015677;28;20038;-75
2024/02/17 03:25:28;;;;;;;52.60;25.90;;;9.60;99.90;;;;;;4997569;28;20048;-77
2024/02/17 03:27:55;;;;;;;50.75;27.27;;;9.60;99.90;;;;;;5024637;28;20076;-76
2024/02/17 03:30:21;;;;;;;54.45;27.95;;;9.60;99.90;;;;;;5012237;28;20071;-77
2024/02/17 03:32:47;;;;;;;46.30;25.33;;;9.60;99.90;;;;;;4998350;28;20037;-77
2024/02/17 03:35:14;;;;;;;50.83;27.92;;;9.60;99.90;;;;;;5014394;28;20051;-74
2024/02/17 03:37:40;;;;;;;54.90;29.23;;;9.60;99.90;;;;;;5013232;28;20040;-75
2024/02/17 03:40:08;;;;;;;49.15;25.88;;;9.60;99.90;;;;;;5029071;28;20049;-74
2024/02/17 03:42:35;;;;;;;46.85;25.17;;;9.60;99.90;;;;;;5011989;28;20040;-75
2024/02/17 03:45:01;;;;;;;46.05;24.85;;;9.60;99.90;;;;;;5014250;28;20025;-77
2024/02/17 03:47:28;;;;;;;45.17;25.15;;;9.60;99.90;;;;;;5000300;28;20064;-77
2024/02/17 03:49:54;;;;;;;50.33;26.02;;;9.60;99.90;;;;;;5018463;28;20412;-76
2024/02/17 03:52:21;;;;;;;49.72;26.48;;;9.70;99.90;;;;;;5016186;28;20029;-77
2024/02/17 03:54:48;;;;;;;49.28;26.05;;;9.60;99.90;;;;;;5015580;28;20034;-76
2024/02/17 03:57:17;;;;;;;52.60;27.35;;;9.60;99.90;;;;;;4996866;28;20411;-77
2024/02/17 03:59:43;;;;;;;49.45;26.35;;;9.70;99.90;;;;;;4999372;28;20037;-77
2024/02/17 04:02:09;;;;;;;50.58;25.73;;;9.70;99.90;;;;;;5016717;28;20040;-76
2024/02/17 04:04:36;;;;;;;44.58;25.15;;;9.70;99.90;;;;;;5014222;28;20489;-76
2024/02/17 04:07:03;;;;;;;49.08;25.30;;;9.70;99.90;;;;;;5000420;28;20034;-77
2024/02/17 04:09:29;;;;;;;48.45;24.35;;;9.70;99.90;;;;;;5001444;28;20324;-78
2024/02/17 04:11:56;;;;;;;42.80;22.40;;;9.60;99.90;;;;;;5012364;28;20049;-74
2024/02/17 04:14:23;;;;;;;41.85;22.48;;;9.70;99.90;;;;;;5015663;28;20038;-76
2024/02/17 04:16:49;;;;;;;39.92;22.85;;;9.60;99.90;;;;;;4997551;28;20049;-78
2024/02/17 04:19:15;;;;;;;48.40;24.77;;;9.60;99.90;;;;;;5000958;28;20033;-76
2024/02/17 04:21:43;;;;;;;40.78;23.50;;;9.60;99.90;;;;;;4996865;28;20059;-75
2024/02/17 04:24:09;;;;;;;43.38;22.75;;;9.60;99.90;;;;;;5015454;28;20041;-77
2024/02/17 04:26:36;;;;;;;42.80;22.27;;;9.60;99.90;;;;;;5015597;28;20036;-78
2024/02/17 04:29:02;;;;;;;48.05;25.48;;;9.60;99.90;;;;;;5015943;28;21430;-75
2024/02/17 04:31:29;;;;;;;45.35;23.55;;;9.60;99.90;;;;;;5045210;28;20405;-78
2024/02/17 04:33:56;;;;;;;46.85;24.52;;;9.60;99.90;;;;;;5016061;28;20037;-77
2024/02/17 04:36:23;;;;;;;49.45;25.67;;;9.60;99.90;;;;;;5012527;28;20049;-76
2024/02/17 04:38:50;;;;;;;55.42;29.77;;;9.60;99.90;;;;;;4995707;28;20030;-77
2024/02/17 04:41:17;;;;;;;50.72;26.13;;;9.60;99.90;;;;;;4984703;28;20381;-74
2024/02/17 04:43:45;;;;;;;50.70;26.52;;;9.60;99.90;;;;;;5010784;28;20931;-74
2024/02/17 04:46:12;;;;;;;56.83;27.95;;;9.60;99.90;;;;;;4994181;28;20041;-78
2024/02/17 04:48:38;;;;;;;55.72;30.20;;;9.60;99.90;;;;;;5010271;28;20060;-74
2024/02/17 04:51:04;;;;;;;48.97;26.77;;;9.60;99.90;;;;;;4999552;28;20943;-75
2024/02/17 04:53:31;;;;;;;54.97;28.50;;;9.60;99.90;;;;;;5012222;28;20046;-74
2024/02/17 04:55:57;;;;;;;49.42;28.02;;;9.60;99.90;;;;;;5001985;28;20405;-77
2024/02/17 04:58:23;;;;;;;48.72;25.25;;;9.60;99.90;;;;;;5013365;28;20037;-78
2024/02/17 05:00:49;;;;;;;46.45;25.25;;;9.60;99.90;;;;;;5013976;28;20034;-74
2024/02/17 05:03:16;;;;;;;48.55;25.27;;;9.60;99.90;;;;;;5030384;28;20408;-77
2024/02/17 05:05:43;;;;;;;47.75;26.27;;;9.60;99.90;;;;;;5011126;28;20376;-77
2024/02/17 05:08:09;;;;;;;49.88;26.45;;;9.60;99.90;;;;;;5012145;28;20033;-77
2024/02/17 05:10:38;;;;;;;44.05;24.60;;;9.60;99.90;;;;;;5010853;28;20034;-77
2024/02/17 05:13:04;;;;;;;42.17;23.92;;;9.60;99.90;;;;;;4979159;28;20042;-78
2024/02/17 05:15:31;;;;;;;54.53;28.33;;;9.60;99.90;;;;;;4995703;28;20516;-76
2024/02/17 05:17:57;;;;;;;61.28;30.77;;;9.60;99.90;;;;;;5011476;28;20029;-77
2024/02/17 05:20:24;;;;;;;56.95;30.08;;;9.60;99.90;;;;;;4996468;28;20469;-75
2024/02/17 05:22:50;;;;;;;58.83;31.52;;;9.60;99.90;;;;;;4994769;28;21523;-75
2024/02/17 05:25:20;;;;;;;73.68;35.03;;;9.60;99.90;;;;;;4996487;28;20049;-78
2024/02/17 05:27:46;;;;;;;55.78;29.17;;;9.60;99.90;;;;;;4983383;28;21578;-77
2024/02/17 05:30:17;;;;;;;48.00;27.80;;;9.60;99.90;;;;;;5000700;28;20056;-77
2024/02/17 05:32:44;;;;;;;53.38;29.40;;;9.60;99.90;;;;;;4998323;28;20037;-77
2024/02/17 05:35:10;;;;;;;64.22;33.10;;;9.60;99.90;;;;;;5012316;28;20116;-76
2024/02/17 05:37:38;;;;;;;54.50;30.55;;;9.60;99.90;;;;;;4998973;28;20484;-76
2024/02/17 05:40:06;;;;;;;51.08;27.90;;;9.60;99.90;;;;;;5036067;28;20036;-76
2024/02/17 05:42:35;;;;;;;55.28;29.35;;;9.60;99.90;;;;;;5000325;28;20037;-77
2024/02/17 05:45:05;;;;;;;51.13;27.20;;;9.60;99.90;;;;;;5018220;28;20121;-76
2024/02/17 05:47:31;;;;;;;53.35;29.73;;;9.60;99.90;;;;;;5028713;28;20037;-75
2024/02/17 05:49:58;;;;;;;52.60;28.75;;;9.60;99.90;;;;;;5015973;28;20033;-77
2024/02/17 05:52:25;;;;;;;58.30;31.05;;;9.60;99.90;;;;;;5001661;28;20048;-76
2024/02/17 05:54:51;;;;;;;64.90;35.03;;;9.60;99.90;;;;;;5018705;28;20041;-78
2024/02/17 05:57:17;;;;;;;56.10;29.70;;;9.60;99.90;;;;;;4998510;28;20481;-75
2024/02/17 05:59:44;;;;;;;56.08;30.17;;;9.60;99.90;;;;;;5000863;28;20550;-76
2024/02/17 06:02:10;;;;;;;63.08;32.30;;;9.60;99.90;;;;;;5046186;28;20060;-77
2024/02/17 06:04:36;;;;;;;53.08;30.33;;;9.60;99.90;;;;;;5012786;28;20045;-76
2024/02/17 06:07:03;;;;;;;58.08;31.40;;;9.60;99.90;;;;;;5014876;28;20375;-76
2024/02/17 06:09:29;;;;;;;63.20;32.47;;;9.60;99.90;;;;;;5017146;28;20029;-73
2024/02/17 06:11:55;;;;;;;53.80;28.33;;;9.60;99.90;;;;;;4999218;28;20046;-76
2024/02/17 06:14:22;;;;;;;45.55;25.88;;;9.60;99.90;;;;;;4985736;28;20046;-77
2024/02/17 06:16:48;;;;;;;42.63;24.85;;;9.60;99.90;;;;;;4998488;28;20048;-76
2024/02/17 06:21:59;;;;;;;52.50;27.10;;;9.60;99.90;;;;;;5017075;28;20030;-74
2024/02/17 06:24:26;;;;;;;41.95;24.15;;;9.60;99.90;;;;;;5013556;28;20037;-75
2024/02/17 06:26:52;;;;;;;37.80;22.00;;;9.60;99.90;;;;;;5012758;28;20050;-76
2024/02/17 06:29:18;;;;;;;35.90;22.45;;;9.60;99.90;;;;;;5011679;28;20040;-76
2024/02/17 06:31:46;;;;;;;41.38;24.65;;;9.60;99.90;;;;;;5011425;28;20052;-76
2024/02/17 06:34:12;;;;;;;35.75;21.55;;;9.60;99.90;;;;;;4997896;28;20060;-75
2024/02/17 06:36:42;;;;;;;40.22;22.27;;;9.60;99.90;;;;;;4997519;28;20048;-77
2024/02/17 06:39:08;;;;;;;48.40;27.73;;;9.60;99.90;;;;;;4999538;28;20049;-76
2024/02/17 06:41:35;;;;;;;57.40;34.60;;;9.60;99.90;;;;;;5030727;28;20037;-76
2024/02/17 06:44:01;;;;;;;55.33;32.55;;;9.50;99.90;;;;;;5018527;28;20048;-76
2024/02/17 06:46:28;;;;;;;53.35;29.92;;;9.50;99.90;;;;;;5016934;28;20038;-77
2024/02/17 06:48:54;;;;;;;67.88;37.58;;;9.60;99.90;;;;;;5014602;28;20049;-74
2024/02/17 06:51:22;;;;;;;61.90;36.75;;;9.60;99.90;;;;;;5013186;28;20702;-75
2024/02/17 06:53:49;;;;;;;56.92;35.22;;;9.60;99.90;;;;;;5012051;28;20025;-75
2024/02/17 06:56:16;;;;;;;58.08;34.95;;;9.60;99.90;;;;;;4984873;28;20041;-74
2024/02/17 06:58:42;;;;;;;56.15;31.60;;;9.60;99.90;;;;;;5015241;28;20046;-76
2024/02/17 07:01:09;;;;;;;57.28;31.55;;;9.60;99.90;;;;;;5015388;28;20040;-76
2024/02/17 07:03:35;;;;;;;45.60;27.38;;;9.60;99.90;;;;;;5013001;28;20052;-76
2024/02/17 07:06:04;;;;;;;42.53;26.55;;;9.60;99.90;;;;;;5014431;28;22496;-76
2024/02/17 07:08:31;;;;;;;44.92;26.63;;;9.60;99.90;;;;;;5013241;28;20048;-75
2024/02/17 07:10:57;;;;;;;46.92;26.23;;;9.60;99.90;;;;;;4999709;28;20512;-76
2024/02/17 07:13:23;;;;;;;41.30;24.15;;;9.60;99.90;;;;;;5015060;28;20049;-76
2024/02/17 07:15:50;;;;;;;39.55;22.05;;;9.60;99.90;;;;;;5015751;28;20045;-75
2024/02/17 07:18:17;;;;;;;42.97;23.77;;;9.50;99.90;;;;;;4999036;28;20392;-77
2024/02/17 07:20:45;;;;;;;39.78;22.73;;;9.50;99.90;;;;;;5017888;28;20034;-74
2024/02/17 07:23:13;;;;;;;39.15;22.10;;;9.50;99.90;;;;;;5012387;28;20030;-75
2024/02/17 07:25:39;;;;;;;35.13;22.48;;;9.50;99.90;;;;;;5000975;28;20052;-77
2024/02/17 07:28:06;;;;;;;37.75;22.00;;;9.50;99.90;;;;;;5014019;28;20033;-76
2024/02/17 07:30:32;;;;;;;42.17;24.35;;;9.50;99.90;;;;;;4999190;28;20033;-74
2024/02/17 07:32:58;;;;;;;45.67;24.80;;;9.50;99.90;;;;;;5018058;28;20025;-77
2024/02/17 07:35:25;;;;;;;40.92;23.48;;;9.50;99.90;;;;;;4999845;28;20116;-76
2024/02/17 07:37:51;;;;;;;42.72;22.85;;;9.60;99.90;;;;;;5045320;28;20052;-76
2024/02/17 07:40:17;;;;;;;41.40;22.77;;;9.60;99.90;;;;;;4998134;28;20032;-76
2024/02/17 07:42:45;;;;;;;39.03;22.80;;;9.60;99.90;;;;;;4999581;28;20482;-77
2024/02/17 07:45:11;;;;;;;34.15;19.92;;;9.60;99.90;;;;;;5011785;28;20054;-76
2024/02/17 07:47:37;;;;;;;31.17;19.70;;;9.50;99.90;;;;;;5014478;28;20412;-76
2024/02/17 07:50:05;;;;;;;34.63;19.20;;;9.50;99.90;;;;;;5012376;28;20038;-77
2024/02/17 07:52:31;;;;;;;33.53;19.73;;;9.60;99.90;;;;;;5012305;28;20061;-77
2024/02/17 07:54:58;;;;;;;34.60;20.60;;;9.60;99.90;;;;;;5012180;28;20528;-76
2024/02/17 07:57:25;;;;;;;40.95;22.45;;;9.60;99.90;;;;;;5015938;28;20488;-77
2024/02/17 07:59:51;;;;;;;38.10;21.00;;;9.60;99.90;;;;;;4981953;28;20428;-74
2024/02/17 08:02:17;;;;;;;42.78;23.73;;;9.60;99.90;;;;;;5013747;28;20501;-75
2024/02/17 08:04:44;;;;;;;41.85;25.45;;;9.70;99.90;;;;;;5012265;28;20036;-75
2024/02/17 08:07:11;;;;;;;39.60;23.23;;;9.70;99.90;;;;;;5010110;28;20045;-76
2024/02/17 08:09:37;;;;;;;39.95;23.15;;;9.80;99.90;;;;;;4996777;28;20136;-76
2024/02/17 08:12:05;;;;;;;43.95;25.15;;;9.90;99.90;;;;;;4996942;28;20052;-76
2024/02/17 08:14:31;;;;;;;37.03;22.33;;;10.00;99.90;;;;;;4983112;28;20056;-77
2024/02/17 08:16:57;;;;;;;39.05;23.23;;;10.10;99.90;;;;;;5010744;28;20469;-76
2024/02/17 08:19:24;;;;;;;51.47;29.70;;;10.20;99.90;;;;;;5014817;28;20515;-77
2024/02/17 08:21:50;;;;;;;46.25;27.88;;;10.30;99.90;;;;;;5010568;28;20488;-77
2024/02/17 08:24:17;;;;;;;49.95;28.25;;;10.30;99.90;;;;;;4998355;28;20492;-77
2024/02/17 08:26:43;;;;;;;55.00;30.65;;;10.40;99.90;;;;;;5012303;28;20496;-75
2024/02/17 08:29:09;;;;;;;56.97;30.80;;;10.40;99.90;;;;;;4982800;28;20529;-77
2024/02/17 08:31:36;;;;;;;51.65;28.33;;;10.50;99.90;;;;;;5014973;28;20041;-77
2024/02/17 08:34:02;;;;;;;57.47;30.42;;;10.50;99.90;;;;;;5009809;28;20437;-74
2024/02/17 08:36:28;;;;;;;68.65;36.08;;;10.60;99.90;;;;;;5011904;28;20041;-77
2024/02/17 08:38:55;;;;;;;55.67;31.00;;;10.60;99.90;;;;;;5013461;28;20037;-77
2024/02/17 08:41:21;;;;;;;65.93;33.65;;;10.60;99.90;;;;;;5008336;28;20527;-76
2024/02/17 08:43:48;;;;;;;68.20;32.97;;;10.70;99.90;;;;;;4997455;28;20017;-78
2024/02/17 08:46:15;;;;;;;53.25;29.13;;;10.70;99.90;;;;;;4992615;28;20033;-76
2024/02/17 08:48:41;;;;;;;51.92;28.42;;;10.70;99.90;;;;;;4995622;28;20049;-78
2024/02/17 08:51:07;;;;;;;49.45;28.23;;;10.80;99.90;;;;;;4996500;28;20045;-76
2024/02/17 08:53:34;;;;;;;61.60;29.95;;;10.80;99.90;;;;;;4997515;28;20033;-75
2024/02/17 08:56:00;;;;;;;58.72;30.95;;;10.90;99.90;;;;;;4980705;28;20045;-75
2024/02/17 08:58:27;;;;;;;54.50;29.33;;;10.90;99.90;;;;;;5011852;28;20033;-74
2024/02/17 09:00:53;;;;;;;53.85;28.73;;;10.90;99.90;;;;;;4998414;28;20053;-77
2024/02/17 09:03:20;;;;;;;54.95;29.75;;;10.90;99.90;;;;;;5010438;28;20033;-73
2024/02/17 09:05:46;;;;;;;67.22;31.17;;;11.00;99.90;;;;;;4991463;28;20033;-74
2024/02/17 09:08:12;;;;;;;53.10;28.60;;;11.10;99.90;;;;;;4995013;28;20500;-75
2024/02/17 09:10:39;;;;;;;55.22;29.67;;;11.10;99.90;;;;;;5015114;28;20052;-77
2024/02/17 09:13:05;;;;;;;58.42;30.50;;;11.10;99.90;;;;;;4999497;28;20034;-77
2024/02/17 09:15:32;;;;;;;57.90;29.55;;;11.10;99.90;;;;;;4985765;28;20045;-73
2024/02/17 09:18:00;;;;;;;50.30;25.85;;;11.20;99.90;;;;;;5014062;28;20037;-76
2024/02/17 09:20:27;;;;;;;50.88;25.27;;;11.20;99.90;;;;;;4984904;28;20052;-76
2024/02/17 09:22:53;;;;;;;40.33;21.90;;;11.30;99.90;;;;;;5016842;28;20041;-74
2024/02/17 09:25:20;;;;;;;53.03;28.67;;;11.40;99.90;;;;;;4998810;28;20030;-76
2024/02/17 09:27:46;;;;;;;45.92;25.48;;;11.40;99.90;;;;;;4998553;28;20052;-75
2024/02/17 09:30:13;;;;;;;41.38;23.48;;;11.50;99.90;;;;;;4998540;28;20056;-77
2024/02/17 09:32:39;;;;;;;42.80;23.40;;;11.50;99.90;;;;;;4999747;28;20053;-76
2024/02/17 09:35:05;;;;;;;54.22;30.33;;;11.60;99.90;;;;;;5015643;28;20034;-75
2024/02/17 09:37:32;;;;;;;51.80;28.60;;;11.70;99.90;;;;;;5014411;28;20041;-76
2024/02/17 09:39:59;;;;;;;57.67;29.88;;;11.70;99.90;;;;;;5012849;28;20040;-77
2024/02/17 09:42:26;;;;;;;51.13;27.90;;;11.80;99.90;;;;;;4982654;28;20037;-77
2024/02/17 09:44:52;;;;;;;56.08;30.00;;;11.90;99.90;;;;;;5000041;28;20497;-74
2024/02/17 09:47:19;;;;;;;52.50;30.15;;;11.90;99.90;;;;;;5010747;28;20424;-76
2024/02/17 09:49:47;;;;;;;53.80;28.85;;;12.00;99.90;;;;;;4996172;28;20038;-78
2024/02/17 09:52:14;;;;;;;47.70;25.33;;;12.10;99.90;;;;;;5029887;28;20052;-76
2024/02/17 09:54:41;;;;;;;44.80;26.00;;;12.20;99.90;;;;;;5013282;28;20033;-76
2024/02/17 09:57:07;;;;;;;41.67;25.45;;;12.20;99.90;;;;;;4985832;28;20033;-78
2024/02/17 09:59:34;;;;;;;49.25;27.70;;;12.30;99.90;;;;;;5013351;28;20025;-74
2024/02/17 10:02:02;;;;;;;49.50;27.92;;;12.40;99.90;;;;;;5012569;28;20041;-76
2024/02/17 10:04:29;;;;;;;50.67;29.02;;;12.50;99.90;;;;;;4997964;28;20037;-76
2024/02/17 10:07:03;;;;;;;54.22;29.63;;;12.50;99.90;;;;;;5014659;28;20037;-76
2024/02/17 10:09:30;;;;;;;42.28;27.38;;;12.60;99.90;;;;;;5013986;28;20036;-76
2024/02/17 10:11:58;;;;;;;45.15;27.33;;;12.70;99.90;;;;;;5000887;28;20029;-77
2024/02/17 10:14:27;;;;;;;39.90;27.08;;;12.80;99.90;;;;;;5014149;28;20033;-76
2024/02/17 10:16:58;;;;;;;42.63;27.33;;;12.90;99.90;;;;;;4982911;28;20035;-77
2024/02/17 10:19:25;;;;;;;41.33;25.50;;;13.00;99.90;;;;;;5018164;28;20048;-77
2024/02/17 10:21:53;;;;;;;43.28;26.40;;;13.10;99.90;;;;;;5017050;28;20575;-76
2024/02/17 10:24:22;;;;;;;36.58;26.02;;;13.20;99.90;;;;;;4996752;28;20508;-76
2024/02/17 10:26:53;;;;;;;39.30;26.77;;;13.30;99.90;;;;;;4981590;28;20037;-77
2024/02/17 10:29:20;;;;;;;37.17;24.30;;;13.30;99.90;;;;;;5014184;28;20033;-77
2024/02/17 10:31:47;;;;;;;45.05;28.17;;;13.40;99.90;;;;;;5012405;28;20037;-76
2024/02/17 10:34:14;;;;;;;34.53;25.80;;;13.40;99.90;;;;;;4994587;28;20033;-79
2024/02/17 10:36:41;;;;;;;39.75;28.23;;;13.40;99.90;;;;;;5000243;28;20041;-73
2024/02/17 10:39:11;;;;;;;36.00;25.60;;;13.50;99.90;;;;;;4982542;28;20033;-78
2024/02/17 10:41:37;;;;;;;34.72;23.98;;;13.50;99.90;;;;;;4996399;28;20041;-75
2024/02/17 10:44:05;;;;;;;36.58;24.55;;;13.50;99.90;;;;;;5031638;28;20037;-77
2024/02/17 10:46:36;;;;;;;36.22;26.60;;;13.50;99.90;;;;;;4996160;28;20793;-76
2024/02/17 10:49:20;;;;;;;35.25;26.25;;;13.60;99.90;;;;;;5013377;28;20037;-77
2024/02/17 10:52:04;;;;;;;34.38;25.67;;;13.60;99.90;;;;;;5011536;28;20121;-79
2024/02/17 10:54:43;;;;;;;35.95;25.08;;;13.70;99.90;;;;;;5012654;28;20561;-73
2024/02/17 10:57:13;;;;;;;32.83;25.85;;;13.70;99.90;;;;;;5014344;28;21097;-79
2024/02/17 10:59:43;;;;;;;33.15;26.38;;;13.70;99.90;;;;;;4999509;28;20041;-76
2024/02/17 11:02:15;;;;;;;33.65;25.50;;;13.90;99.90;;;;;;5008369;28;20030;-76
2024/02/17 11:04:43;;;;;;;29.73;23.20;;;13.90;99.90;;;;;;5012160;28;20032;-72
2024/02/17 11:07:10;;;;;;;31.98;23.88;;;14.00;99.90;;;;;;5028666;28;20392;-75
2024/02/17 11:09:37;;;;;;;33.55;23.95;;;13.90;99.90;;;;;;5013701;28;20480;-76
2024/02/17 11:12:28;;;;;;;25.13;19.88;;;13.90;99.90;;;;;;4996807;28;20041;-74
2024/02/17 11:14:59;;;;;;;26.10;19.77;;;13.90;99.90;;;;;;4996963;28;20344;-76
2024/02/17 11:17:34;;;;;;;23.17;18.67;;;14.00;99.90;;;;;;5011975;28;20547;-75
2024/02/17 11:20:06;;;;;;;24.35;17.75;;;13.90;99.90;;;;;;4998019;28;20049;-72
2024/02/17 11:22:34;;;;;;;25.45;19.48;;;13.90;99.90;;;;;;5013940;28;20401;-75
2024/02/17 11:25:03;;;;;;;27.13;20.75;;;13.90;99.90;;;;;;4981893;28;20503;-75
2024/02/17 11:27:31;;;;;;;25.42;19.35;;;13.90;99.90;;;;;;5014421;28;20032;-75
2024/02/17 11:30:01;;;;;;;27.77;19.75;;;13.80;99.90;;;;;;4993418;28;20038;-76
2024/02/17 11:32:30;;;;;;;26.50;18.58;;;13.80;99.90;;;;;;4997078;28;20029;-75
2024/02/17 11:34:59;;;;;;;21.15;16.33;;;13.80;99.90;;;;;;4997534;28;20037;-73
2024/02/17 11:37:27;;;;;;;23.08;17.10;;;13.90;99.90;;;;;;4994569;28;20045;-73
2024/02/17 11:39:54;;;;;;;23.27;17.58;;;13.90;99.90;;;;;;4981450;28;20045;-76
2024/02/17 11:42:21;;;;;;;24.65;18.95;;;13.90;99.90;;;;;;5012275;28;20036;-73
2024/02/17 11:44:47;;;;;;;25.38;18.55;;;13.90;99.90;;;;;;5013439;28;20037;-75
2024/02/17 11:47:15;;;;;;;23.15;18.48;;;13.90;99.90;;;;;;5009500;28;20033;-74
2024/02/17 11:49:42;;;;;;;23.48;17.08;;;14.00;99.90;;;;;;5010156;28;20029;-76
2024/02/17 11:52:09;;;;;;;25.92;17.50;;;14.00;99.90;;;;;;5012050;28;20374;-75
2024/02/17 11:54:36;;;;;;;22.85;16.45;;;14.10;99.90;;;;;;5028810;28;20029;-75
2024/02/17 11:57:04;;;;;;;20.95;16.35;;;14.10;99.90;;;;;;5010822;28;20022;-76
2024/02/17 11:59:34;;;;;;;26.00;17.75;;;14.20;99.90;;;;;;5013186;28;20028;-72
2024/02/17 12:02:01;;;;;;;25.23;17.25;;;14.20;99.90;;;;;;4999798;28;20372;-75
2024/02/17 12:04:28;;;;;;;30.92;20.30;;;14.10;99.90;;;;;;5012843;28;20045;-75
2024/02/17 12:06:55;;;;;;;20.08;16.50;;;14.10;99.90;;;;;;5010943;28;20729;-75
2024/02/17 12:09:21;;;;;;;24.13;18.13;;;13.90;99.90;;;;;;5011757;28;20040;-75
2024/02/17 12:11:48;;;;;;;19.98;15.80;;;13.90;99.90;;;;;;4996449;28;20493;-76
2024/02/17 12:14:16;;;;;;;23.98;15.82;;;13.80;99.90;;;;;;4996067;28;20045;-73
2024/02/17 12:16:43;;;;;;;25.58;16.42;;;13.80;99.90;;;;;;4997657;28;20045;-74
2024/02/17 12:19:10;;;;;;;23.33;15.85;;;13.90;99.90;;;;;;5015023;28;20036;-76
2024/02/17 12:21:38;;;;;;;23.15;16.63;;;13.90;99.90;;;;;;5006910;28;20032;-75
2024/02/17 12:24:07;;;;;;;22.08;16.30;;;13.90;99.90;;;;;;5012271;28;20045;-75
2024/02/17 12:26:34;;;;;;;23.20;17.38;;;13.90;99.90;;;;;;5009077;28;20413;-76
2024/02/17 12:29:05;;;;;;;24.33;18.38;;;13.90;99.90;;;;;;5009679;28;20026;-75
2024/02/17 12:31:31;;;;;;;24.30;17.05;;;13.90;99.90;;;;;;4994170;28;20044;-74
2024/02/17 12:33:58;;;;;;;23.15;18.67;;;13.90;99.90;;;;;;5010106;28;20033;-75